createdAt,value
2023-05-24T04:31:33.161Z,450.0000
2023-05-24T04:32:35.000Z,445.4615
2023-05-24T04:33:37.036Z,445.5385
2023-05-24T04:34:39.164Z,446.0769
2023-05-24T04:35:41.114Z,447.3077
2023-05-24T04:36:43.148Z,448.3077
2023-05-24T04:37:45.217Z,448.0769
2023-05-24T04:38:47.278Z,451.3077
2023-05-24T04:39:49.379Z,455.0769
2023-05-24T04:40:51.345Z,460.6154
2023-05-24T04:41:53.407Z,463.0000
2023-05-24T04:42:55.420Z,469.1538
2023-05-24T04:43:57.449Z,493.0000
2023-05-24T04:44:59.514Z,481.0000
2023-05-24T04:46:01.559Z,471.2308
2023-05-24T04:47:03.687Z,465.3077
2023-05-24T04:48:05.696Z,461.2308
2023-05-24T04:49:07.673Z,456.0000
2023-05-24T04:50:09.761Z,452.3077
2023-05-24T04:51:11.781Z,453.9231
2023-05-24T04:52:13.838Z,454.3846
2023-05-24T04:53:15.871Z,454.9231
2023-05-24T04:54:17.914Z,452.6923
2023-05-24T04:55:19.949Z,453.2308
2023-05-24T04:56:21.989Z,453.9231
2023-05-24T04:57:24.035Z,454.2308
2023-05-24T04:58:26.087Z,453.5385
2023-05-24T04:59:28.111Z,453.1538
2023-05-24T05:00:30.174Z,456.0769
2023-05-24T05:01:32.222Z,457.6923
2023-05-24T05:02:34.301Z,458.6923
2023-05-24T05:03:36.412Z,456.1538
2023-05-24T05:04:38.326Z,455.4615
2023-05-24T05:05:40.376Z,457.1538
2023-05-24T05:06:42.442Z,458.3846
2023-05-24T05:07:44.496Z,457.0000
2023-05-24T05:08:46.519Z,459.7692
2023-05-24T05:09:48.588Z,454.3846
2023-05-24T05:10:50.633Z,454.3846
2023-05-24T05:11:52.672Z,456.0769
2023-05-24T05:12:54.706Z,457.0769
2023-05-24T05:13:56.798Z,462.3846
2023-05-24T05:14:58.796Z,464.3846
2023-05-24T05:16:00.882Z,460.0769
2023-05-24T05:17:02.912Z,462.7692
2023-05-24T05:18:04.991Z,460.1538
2023-05-24T05:19:07.007Z,457.6154
2023-05-24T05:20:09.133Z,455.8462
2023-05-24T05:21:11.070Z,453.7692
2023-05-24T05:22:13.114Z,454.9231
2023-05-24T05:23:15.287Z,455.0769
2023-05-24T05:24:17.243Z,452.0000
2023-05-24T05:25:19.277Z,454.0000
2023-05-24T05:26:21.313Z,449.4615
2023-05-24T05:27:23.355Z,446.6923
2023-05-24T05:28:25.398Z,442.8462
2023-05-24T05:29:27.424Z,443.3077
2023-05-24T05:30:29.513Z,441.3846
2023-05-24T05:31:31.538Z,441.6923
2023-05-24T05:32:33.633Z,440.6154
2023-05-24T05:33:35.643Z,439.8462
2023-05-24T05:34:37.671Z,437.7692
2023-05-24T05:35:39.718Z,440.6154
2023-05-24T05:36:41.754Z,443.4615
2023-05-24T05:37:43.852Z,446.7692
2023-05-24T05:38:45.830Z,447.7692
2023-05-24T05:39:47.913Z,448.2308
2023-05-24T05:40:49.949Z,453.7692
2023-05-24T05:41:51.987Z,457.0769
2023-05-24T05:42:54.025Z,462.0000
2023-05-24T05:43:56.347Z,464.0000
2023-05-24T05:44:58.166Z,468.3846
2023-05-24T05:46:00.230Z,467.0769
2023-05-24T05:47:02.254Z,475.7692
2023-05-24T05:48:04.334Z,480.5385
2023-05-24T05:49:06.398Z,490.4615
2023-05-24T05:50:08.406Z,500.1538
2023-05-24T05:51:10.450Z,503.0000
2023-05-24T05:52:12.482Z,515.0769
2023-05-24T05:53:14.523Z,530.6923
2023-05-24T05:54:16.601Z,537.5385
2023-05-24T05:55:18.594Z,563.0769
2023-05-24T05:56:20.647Z,601.1539
2023-05-24T05:57:22.753Z,626.6923
2023-05-24T05:58:24.757Z,642.3077
2023-05-24T05:59:26.804Z,628.0769
2023-05-24T06:00:28.957Z,634.4615
2023-05-24T06:01:30.866Z,619.5385
2023-05-24T06:02:32.970Z,630.3846
2023-05-24T06:03:35.200Z,639.4615
2023-05-24T06:04:37.059Z,657.0000
2023-05-24T06:05:39.063Z,644.1539
2023-05-24T06:06:41.154Z,618.0000
2023-05-24T06:07:43.165Z,616.1539
2023-05-24T06:08:45.282Z,627.0000
2023-05-24T06:09:47.310Z,657.2308
2023-05-24T06:10:52.039Z,663.2308
2023-05-24T06:11:51.389Z,681.6154
2023-05-24T06:12:53.473Z,706.7692
2023-05-24T06:13:55.457Z,698.6923
2023-05-24T06:14:57.561Z,688.1539
2023-05-24T06:15:59.566Z,685.6154
2023-05-24T06:17:01.690Z,674.6154
2023-05-24T06:18:03.819Z,670.6154
2023-05-24T06:19:06.603Z,673.5385
2023-05-24T06:20:07.764Z,691.1539
2023-05-24T06:21:09.807Z,685.8461
2023-05-24T06:22:11.807Z,701.8461
2023-05-24T06:23:14.016Z,716.6154
2023-05-24T06:24:15.901Z,711.8461
2023-05-24T06:25:18.008Z,708.9231
2023-05-24T06:26:20.002Z,712.2308
2023-05-24T06:27:22.151Z,742.2308
2023-05-24T06:28:24.080Z,733.3077
2023-05-24T06:29:26.154Z,730.7692
2023-05-24T06:30:28.385Z,725.4615
2023-05-24T06:31:30.221Z,718.6154
2023-05-24T06:32:32.380Z,705.6923
2023-05-24T06:33:35.766Z,689.0000
2023-05-24T06:34:36.371Z,686.2308
2023-05-24T06:35:38.413Z,674.2308
2023-05-24T06:36:40.465Z,696.4615
2023-05-24T06:37:42.497Z,674.8461
2023-05-24T06:38:44.514Z,671.3846
2023-05-24T06:39:46.626Z,663.9231
2023-05-24T06:40:48.605Z,662.3846
2023-05-24T06:41:50.659Z,658.6923
2023-05-24T06:42:52.736Z,659.0000
2023-05-24T06:43:54.772Z,659.6923
2023-05-24T06:44:56.841Z,659.0000
2023-05-24T06:45:58.884Z,702.0000
2023-05-24T06:47:01.007Z,683.3846
2023-05-24T06:48:05.024Z,648.0769
2023-05-24T06:49:05.054Z,661.6923
2023-05-24T06:50:07.033Z,661.7692
2023-05-24T06:51:09.091Z,659.3077
2023-05-24T06:52:11.130Z,667.6923
2023-05-24T06:53:13.236Z,669.1539
2023-05-24T06:54:15.243Z,679.7692
2023-05-24T06:55:17.254Z,659.9231
2023-05-24T06:56:19.322Z,652.7692
2023-05-24T06:57:21.355Z,691.3846
2023-05-24T06:58:23.392Z,683.8461
2023-05-24T06:59:25.473Z,688.6923
2023-05-24T07:00:27.583Z,701.9231
2023-05-24T07:01:29.671Z,688.8333
2023-05-24T07:02:31.622Z,685.2308
2023-05-24T07:03:33.642Z,680.4615
2023-05-24T07:04:37.532Z,680.3077
2023-05-24T07:05:37.719Z,705.8461
2023-05-24T07:06:39.829Z,684.0769
2023-05-24T07:07:41.817Z,664.4615
2023-05-24T07:08:43.833Z,659.8461
2023-05-24T07:09:45.896Z,658.3077
2023-05-24T07:10:48.119Z,678.8461
2023-05-24T07:11:50.020Z,753.7692
2023-05-24T07:12:52.016Z,765.8461
2023-05-24T07:13:54.076Z,747.6923
2023-05-24T07:14:56.120Z,761.4615
2023-05-24T07:15:58.158Z,710.0000
2023-05-24T07:17:00.340Z,698.4615
2023-05-24T07:18:02.342Z,704.0769
2023-05-24T07:19:04.949Z,714.6923
2023-05-24T07:20:06.359Z,705.3846
2023-05-24T07:21:08.404Z,709.0000
2023-05-24T07:22:10.496Z,716.5385
2023-05-24T07:23:12.552Z,725.0000
2023-05-24T07:24:16.229Z,717.6923
2023-05-24T07:25:16.581Z,711.9231
2023-05-24T07:26:18.644Z,693.3846
2023-05-24T07:27:20.650Z,681.7692
2023-05-24T07:28:22.741Z,670.9231
2023-05-24T07:29:24.981Z,669.6923
2023-05-24T07:30:32.301Z,664.1539
2023-05-24T07:31:28.870Z,658.0769
2023-05-24T07:32:30.990Z,659.7692
2023-05-24T07:33:33.040Z,664.8461
2023-05-24T07:34:35.027Z,683.6923
2023-05-24T07:35:37.087Z,700.1539
2023-05-24T07:36:39.301Z,690.6154
2023-05-24T07:37:41.228Z,661.5385
2023-05-24T07:38:43.328Z,651.2308
2023-05-24T07:39:45.224Z,648.3846
2023-05-24T07:40:47.340Z,649.6154
2023-05-24T07:41:49.330Z,649.1539
2023-05-24T07:42:51.416Z,650.6154
2023-05-24T07:43:53.478Z,652.2308
2023-05-24T07:44:55.549Z,650.3846
2023-05-24T07:45:57.522Z,648.6923
2023-05-24T07:46:59.731Z,630.6154
2023-05-24T07:48:01.861Z,641.1539
2023-05-24T07:49:03.673Z,640.2308
2023-05-24T07:50:06.065Z,654.6923
2023-05-24T07:51:08.059Z,657.0000
2023-05-24T07:52:09.784Z,654.3077
2023-05-24T07:53:11.853Z,652.8461
2023-05-24T07:54:13.894Z,667.6923
2023-05-24T07:55:15.940Z,667.2308
2023-05-24T07:56:17.953Z,672.1539
2023-05-24T07:57:20.035Z,678.9231
2023-05-24T07:58:22.093Z,685.3846
2023-05-24T07:59:24.106Z,687.0769
2023-05-24T08:00:26.259Z,681.3077
2023-05-24T08:01:28.213Z,679.6154
2023-05-24T08:02:30.439Z,696.4615
2023-05-24T08:03:32.379Z,693.7692
2023-05-24T08:04:34.367Z,701.4615
2023-05-24T08:05:36.562Z,708.3077
2023-05-24T08:06:38.496Z,694.3846
2023-05-24T08:07:40.469Z,707.6154
2023-05-24T08:08:42.555Z,689.3077
2023-05-24T08:09:44.651Z,658.2308
2023-05-24T08:10:46.604Z,690.4615
2023-05-24T08:11:48.664Z,695.4615
2023-05-24T08:12:50.667Z,706.1539
2023-05-24T08:13:52.721Z,727.9231
2023-05-24T08:14:55.272Z,749.6923
2023-05-24T08:15:56.879Z,758.2308
2023-05-24T08:16:58.887Z,740.3846
2023-05-24T08:18:00.973Z,713.6154
2023-05-24T08:19:03.017Z,707.0000
2023-05-24T08:20:05.084Z,697.6154
2023-05-24T08:21:07.035Z,696.3077
2023-05-24T08:22:09.239Z,698.0000
2023-05-24T08:23:11.351Z,679.0769
2023-05-24T08:24:13.186Z,678.0000
2023-05-24T08:25:16.974Z,683.7692
2023-05-24T08:26:17.486Z,678.7692
2023-05-24T08:27:19.314Z,669.6923
2023-05-24T08:28:21.484Z,661.0769
2023-05-24T08:29:23.423Z,653.4615
2023-05-24T08:30:25.734Z,645.5385
2023-05-24T08:31:27.564Z,646.8461
2023-05-24T08:32:29.587Z,645.3077
2023-05-24T08:33:31.630Z,645.2308
2023-05-24T08:34:33.747Z,644.1539
2023-05-24T08:35:35.776Z,641.4615
2023-05-24T08:36:37.831Z,650.9231
2023-05-24T08:37:39.955Z,661.4615
2023-05-24T08:38:41.927Z,652.3077
2023-05-24T08:39:44.120Z,649.6154
2023-05-24T08:40:46.076Z,644.5385
2023-05-24T08:42:01.026Z,655.3077
2023-05-24T08:42:50.151Z,667.0769
2023-05-24T08:43:52.185Z,669.3846
2023-05-24T08:44:54.205Z,683.6154
2023-05-24T08:45:56.282Z,703.5385
2023-05-24T08:46:58.369Z,681.3077
2023-05-24T08:48:00.463Z,686.0769
2023-05-24T08:49:02.548Z,675.0769
2023-05-24T08:50:04.499Z,667.6923
2023-05-24T08:51:06.630Z,659.6154
2023-05-24T08:52:08.642Z,656.7692
2023-05-24T08:53:10.573Z,663.6154
2023-05-24T08:54:12.662Z,698.3077
2023-05-24T08:55:14.680Z,688.0000
2023-05-24T08:56:16.780Z,679.4615
2023-05-24T08:57:18.756Z,682.0000
2023-05-24T08:58:20.838Z,699.9231
2023-05-24T08:59:22.856Z,707.8461
2023-05-24T09:00:24.931Z,719.3077
2023-05-24T09:01:28.953Z,720.1539
2023-05-24T09:02:29.007Z,717.0000
2023-05-24T09:03:31.148Z,721.3077
2023-05-24T09:04:33.109Z,721.5385
2023-05-24T09:05:35.168Z,719.4615
2023-05-24T09:06:37.191Z,714.9231
2023-05-24T09:07:39.259Z,715.7692
2023-05-24T09:08:43.628Z,728.6154
2023-05-24T09:09:43.323Z,714.2308
2023-05-24T09:10:54.554Z,695.6154
2023-05-24T09:11:47.423Z,684.9231
2023-05-24T09:12:49.470Z,743.4615
2023-05-24T09:13:51.488Z,728.0769
2023-05-24T09:14:53.621Z,729.4615
2023-05-24T09:15:55.661Z,750.0769
2023-05-24T09:16:57.665Z,789.6154
2023-05-24T09:17:59.702Z,736.9231
2023-05-24T09:19:01.747Z,721.3077
2023-05-24T09:20:03.856Z,731.9231
2023-05-24T09:21:05.866Z,751.7692
2023-05-24T09:22:08.202Z,739.6923
2023-05-24T09:23:10.032Z,749.3077
2023-05-24T09:24:11.995Z,746.0000
2023-05-24T09:25:14.083Z,741.3077
2023-05-24T09:26:16.120Z,742.6923
2023-05-24T09:27:18.122Z,758.3846
2023-05-24T09:28:20.167Z,756.1539
2023-05-24T09:29:22.359Z,744.1539
2023-05-24T09:30:24.279Z,744.5385
2023-05-24T09:31:26.344Z,737.3077
2023-05-24T09:32:28.437Z,726.3077
2023-05-24T09:33:30.393Z,717.3846
2023-05-24T09:34:32.407Z,721.3846
2023-05-24T09:35:34.645Z,709.9231
2023-05-24T09:36:36.545Z,723.7692
2023-05-24T09:37:38.757Z,731.4615
2023-05-24T09:38:40.691Z,723.2308
2023-05-24T09:39:42.701Z,716.0769
2023-05-24T09:40:44.727Z,712.2308
2023-05-24T09:41:46.910Z,720.9231
2023-05-24T09:42:49.834Z,737.6923
2023-05-24T09:43:50.896Z,739.6154
2023-05-24T09:44:53.184Z,732.5385
2023-05-24T09:45:54.960Z,737.1539
2023-05-24T09:46:57.027Z,735.3846
2023-05-24T09:47:59.137Z,720.4615
2023-05-24T09:49:01.081Z,709.0769
2023-05-24T09:50:03.165Z,713.7692
2023-05-24T09:51:05.196Z,717.2308
2023-05-24T09:52:07.305Z,715.3077
2023-05-24T09:53:09.289Z,697.3846
2023-05-24T09:54:11.296Z,717.0769
2023-05-24T09:55:13.366Z,739.3846
2023-05-24T09:56:15.430Z,725.6154
2023-05-24T09:57:17.427Z,713.7692
2023-05-24T09:58:19.484Z,716.7692
2023-05-24T09:59:21.553Z,717.3077
2023-05-24T10:00:23.658Z,716.3077
2023-05-24T10:01:25.688Z,725.3846
2023-05-24T10:02:31.369Z,723.2308
2023-05-24T10:03:29.864Z,714.1539
2023-05-24T10:04:31.861Z,700.0000
2023-05-24T10:05:33.938Z,692.1539
2023-05-24T10:06:35.871Z,678.0769
2023-05-24T10:07:37.903Z,671.6923
2023-05-24T10:08:40.046Z,659.4615
2023-05-24T10:09:42.022Z,647.7692
2023-05-24T10:10:44.456Z,639.3846
2023-05-24T10:11:46.275Z,638.2308
2023-05-24T10:12:48.322Z,637.3077
2023-05-24T10:13:50.214Z,648.0000
2023-05-24T10:14:52.330Z,655.9231
2023-05-24T10:15:54.407Z,640.1539
2023-05-24T10:16:56.389Z,631.0769
2023-05-24T10:17:58.583Z,633.4615
2023-05-24T10:19:00.447Z,634.7692
2023-05-24T10:20:02.556Z,638.6923
2023-05-24T10:21:04.762Z,642.2308
2023-05-24T10:22:06.592Z,650.5385
2023-05-24T10:23:08.628Z,649.9231
2023-05-24T10:24:10.733Z,646.3846
2023-05-24T10:25:12.835Z,649.6154
2023-05-24T10:26:14.833Z,655.0769
2023-05-24T10:27:16.967Z,661.6923
2023-05-24T10:28:18.923Z,683.6154
2023-05-24T10:29:20.938Z,726.6923
2023-05-24T10:30:23.005Z,747.6923
2023-05-24T10:31:25.127Z,825.0000
2023-05-24T10:32:27.203Z,753.5385
2023-05-24T10:33:29.166Z,716.8461
2023-05-24T10:34:31.232Z,723.5385
2023-05-24T10:35:33.246Z,745.3077
2023-05-24T10:36:35.308Z,707.5385
2023-05-24T10:37:38.010Z,719.6923
2023-05-24T10:38:39.434Z,758.7692
2023-05-24T10:39:41.475Z,760.3846
2023-05-24T10:40:43.503Z,789.9231
2023-05-24T10:41:45.608Z,774.3846
2023-05-24T10:42:47.685Z,777.4615
2023-05-24T10:44:07.301Z,767.2308
2023-05-24T10:44:51.743Z,753.0769
2023-05-24T10:45:53.838Z,756.1539
2023-05-24T10:46:55.876Z,715.1539
2023-05-24T10:47:57.907Z,754.6154
2023-05-24T10:48:59.931Z,666.9231
2023-05-24T10:50:02.008Z,663.0769
2023-05-24T10:51:04.210Z,673.0000
2023-05-24T10:52:06.062Z,697.8461
2023-05-24T10:53:08.119Z,715.1539
2023-05-24T10:54:10.191Z,678.9231
2023-05-24T10:55:12.241Z,772.9231
2023-05-24T10:56:14.290Z,721.2308
2023-05-24T10:57:16.350Z,703.3077
2023-05-24T10:58:18.372Z,725.5385
2023-05-24T10:59:20.416Z,738.0769
2023-05-24T11:00:33.683Z,714.4615
2023-05-24T11:01:24.593Z,722.2308
2023-05-24T11:02:26.650Z,698.2308
2023-05-24T11:03:28.923Z,698.3846
2023-05-24T11:04:30.700Z,696.0000
2023-05-24T11:05:32.751Z,772.4615
2023-05-24T11:06:34.811Z,761.4615
2023-05-24T11:07:36.854Z,746.1539
2023-05-24T11:08:38.921Z,731.3846
2023-05-24T11:09:40.944Z,732.6923
2023-05-24T11:10:43.380Z,711.0769
2023-05-24T11:11:45.023Z,706.8461
2023-05-24T11:12:47.125Z,775.4615
2023-05-24T11:13:49.153Z,784.3846
2023-05-24T11:14:51.231Z,720.3077
2023-05-24T11:15:53.281Z,695.8461
2023-05-24T11:16:55.385Z,677.4615
2023-05-24T11:17:57.522Z,668.2308
2023-05-24T11:18:59.408Z,667.4615
2023-05-24T11:20:01.511Z,651.7692
2023-05-24T11:21:04.097Z,628.6923
2023-05-24T11:22:05.561Z,616.5385
2023-05-24T11:23:07.593Z,617.7692
2023-05-24T11:24:09.768Z,622.3846
2023-05-24T11:25:11.692Z,627.2308
2023-05-24T11:26:13.775Z,628.5385
2023-05-24T11:27:15.810Z,641.0000
2023-05-24T11:28:17.900Z,669.7692
2023-05-24T11:29:19.911Z,664.5385
2023-05-24T11:30:21.935Z,661.0000
2023-05-24T11:31:24.035Z,661.4615
2023-05-24T11:32:26.151Z,652.1539
2023-05-24T11:33:28.097Z,650.4615
2023-05-24T11:34:30.116Z,661.5385
2023-05-24T11:35:32.197Z,663.7692
2023-05-24T11:36:34.235Z,663.6154
2023-05-24T11:37:46.135Z,661.0000
2023-05-24T11:38:38.318Z,660.4615
2023-05-24T11:39:40.399Z,657.0000
2023-05-24T11:40:42.675Z,654.8461
2023-05-24T11:41:44.513Z,656.0000
2023-05-24T11:42:46.548Z,660.6154
2023-05-24T11:43:48.603Z,661.2308
2023-05-24T11:44:51.017Z,655.0769
2023-05-24T11:45:52.802Z,655.9231
2023-05-24T11:46:54.781Z,650.9231
2023-05-24T11:47:56.854Z,645.2308
2023-05-24T11:48:58.804Z,645.6923
2023-05-24T11:50:00.847Z,654.0769
2023-05-24T11:51:02.895Z,659.2308
2023-05-24T11:52:04.966Z,664.9231
2023-05-24T11:53:07.027Z,683.6154
2023-05-24T11:54:09.052Z,675.3077
2023-05-24T11:55:11.115Z,690.0769
2023-05-24T11:56:13.136Z,678.0000
2023-05-24T11:57:15.164Z,675.2308
2023-05-24T11:58:17.253Z,673.2308
2023-05-24T11:59:19.279Z,664.4615
2023-05-24T12:00:21.526Z,670.0000
2023-05-24T12:01:23.584Z,668.4615
2023-05-24T12:02:25.443Z,670.4615
2023-05-24T12:03:27.618Z,662.9231
2023-05-24T12:04:29.742Z,658.5385
2023-05-24T12:05:31.558Z,652.8461
2023-05-24T12:06:33.597Z,666.7692
2023-05-24T12:07:35.690Z,691.7692
2023-05-24T12:08:37.678Z,691.4615
2023-05-24T12:09:39.758Z,683.6154
2023-05-24T12:10:41.991Z,683.6154
2023-05-24T12:11:43.870Z,684.0769
2023-05-24T12:12:46.335Z,691.4615
2023-05-24T12:13:47.917Z,682.0000
2023-05-24T12:14:49.932Z,676.7692
2023-05-24T12:15:54.897Z,692.8461
2023-05-24T12:16:54.043Z,690.7692
2023-05-24T12:17:56.719Z,684.0000
2023-05-24T12:19:05.348Z,695.9231
2023-05-24T12:20:00.315Z,682.0769
2023-05-24T12:21:02.237Z,666.6923
2023-05-24T12:22:04.284Z,662.3846
2023-05-24T12:23:06.317Z,654.3846
2023-05-24T12:24:08.418Z,641.4615
2023-05-24T12:25:10.465Z,637.6154
2023-05-24T12:26:12.448Z,637.8461
2023-05-24T12:27:14.529Z,633.9231
2023-05-24T12:28:16.554Z,629.0000
2023-05-24T12:29:18.805Z,622.6154
2023-05-24T12:30:20.642Z,622.8461
2023-05-24T12:31:22.697Z,629.7692
2023-05-24T12:32:24.791Z,634.1539
2023-05-24T12:33:26.781Z,636.2308
2023-05-24T12:34:28.847Z,640.7692
2023-05-24T12:35:30.884Z,640.4615
2023-05-24T12:36:32.941Z,643.0000
2023-05-24T12:37:34.950Z,646.3846
2023-05-24T12:38:37.009Z,651.8461
2023-05-24T12:39:39.141Z,657.6923
2023-05-24T12:40:41.354Z,665.8461
2023-05-24T12:41:43.239Z,679.6923
2023-05-24T12:42:45.335Z,683.5385
2023-05-24T12:43:47.314Z,678.7692
2023-05-24T12:44:49.377Z,671.2308
2023-05-24T12:45:53.604Z,662.3846
2023-05-24T12:46:53.539Z,669.3846
2023-05-24T12:47:55.526Z,694.9231
2023-05-24T12:48:57.545Z,702.7692
2023-05-24T12:49:59.732Z,707.4615
2023-05-24T12:51:01.697Z,692.6923
2023-05-24T12:52:03.693Z,684.8461
2023-05-24T12:53:05.745Z,676.6923
2023-05-24T12:54:07.822Z,659.9231
2023-05-24T12:55:09.985Z,651.9231
2023-05-24T12:56:11.949Z,648.3846
2023-05-24T12:57:13.981Z,649.0769
2023-05-24T12:58:15.986Z,648.3846
2023-05-24T12:59:18.062Z,649.3846
2023-05-24T13:00:20.055Z,675.9231
2023-05-24T13:01:22.366Z,667.6923
2023-05-24T13:02:24.176Z,654.2308
2023-05-24T13:03:26.189Z,655.0769
2023-05-24T13:04:28.264Z,654.3077
2023-05-24T13:05:30.403Z,670.7692
2023-05-24T13:06:32.334Z,667.6923
2023-05-24T13:07:34.454Z,658.5385
2023-05-24T13:08:38.116Z,656.0000
2023-05-24T13:09:38.506Z,657.5385
2023-05-24T13:10:40.654Z,652.4615
2023-05-24T13:11:42.592Z,646.6154
2023-05-24T13:12:44.619Z,650.0769
2023-05-24T13:13:47.133Z,654.3846
2023-05-24T13:14:50.679Z,671.1539
2023-05-24T13:15:50.759Z,719.5385
2023-05-24T13:16:53.073Z,699.0000
2023-05-24T13:17:54.998Z,691.5385
2023-05-24T13:18:56.924Z,686.6154
2023-05-24T13:20:01.726Z,685.7692
2023-05-24T13:21:00.993Z,648.1539
2023-05-24T13:22:03.062Z,651.0769
2023-05-24T13:23:05.111Z,685.3077
2023-05-24T13:24:07.102Z,660.3077
2023-05-24T13:25:09.157Z,649.3077
2023-05-24T13:26:11.239Z,648.0000
2023-05-24T13:27:13.289Z,647.4615
2023-05-24T13:28:15.324Z,648.7692
2023-05-24T13:29:34.181Z,646.6923
2023-05-24T13:30:19.418Z,651.0000
2023-05-24T13:31:21.488Z,653.3846
2023-05-24T13:32:23.574Z,653.9231
2023-05-24T13:33:25.530Z,651.0769
2023-05-24T13:34:27.582Z,647.2308
2023-05-24T13:35:29.620Z,651.1539
2023-05-24T13:36:31.672Z,646.8461
2023-05-24T13:37:33.754Z,647.6923
2023-05-24T13:38:35.769Z,670.8461
2023-05-24T13:39:37.835Z,642.9231
2023-05-24T13:40:41.777Z,628.5385
2023-05-24T13:41:42.174Z,667.0769
2023-05-24T13:42:44.017Z,688.1539
2023-05-24T13:43:45.985Z,688.0769
2023-05-24T13:44:48.032Z,683.8461
2023-05-24T13:45:50.070Z,669.7692
2023-05-24T13:46:52.165Z,693.0000
2023-05-24T13:47:54.216Z,681.3846
2023-05-24T13:48:56.247Z,674.3846
2023-05-24T13:49:58.241Z,675.6923
2023-05-24T13:51:00.301Z,664.0000
2023-05-24T13:52:02.389Z,660.3846
2023-05-24T13:53:04.414Z,672.3077
2023-05-24T13:54:06.437Z,681.7692
2023-05-24T13:55:08.530Z,678.3077
2023-05-24T13:56:10.516Z,684.9231
2023-05-24T13:57:12.652Z,690.6923
2023-05-24T13:58:14.602Z,707.6154
2023-05-24T13:59:16.735Z,721.4615
2023-05-24T14:00:18.737Z,722.4615
2023-05-24T14:01:20.932Z,716.0000
2023-05-24T14:02:22.848Z,703.0769
2023-05-24T14:03:24.835Z,705.9231
2023-05-24T14:04:26.884Z,690.1539
2023-05-24T14:05:28.969Z,683.1539
2023-05-24T14:06:30.987Z,675.8461
2023-05-24T14:07:33.087Z,686.0769
2023-05-24T14:08:35.097Z,703.4615
2023-05-24T14:09:37.217Z,702.6154
2023-05-24T14:10:39.220Z,696.4615
2023-05-24T14:11:41.348Z,701.5385
2023-05-24T14:12:43.287Z,721.0769
2023-05-24T14:15:49.520Z,695.8461
2023-05-24T14:16:51.453Z,689.0769
2023-05-24T14:17:53.605Z,686.8461
2023-05-24T14:18:55.553Z,692.8461
2023-05-24T14:19:57.750Z,691.7692
2023-05-24T14:20:59.655Z,688.3846
2023-05-24T14:22:01.731Z,685.0000
2023-05-24T14:23:03.932Z,684.2308
2023-05-24T14:24:05.809Z,677.7692
2023-05-24T14:25:07.825Z,684.6923
2023-05-24T14:26:09.935Z,684.3077
2023-05-24T14:27:11.907Z,694.3846
2023-05-24T14:28:14.016Z,707.3077
2023-05-24T14:29:16.084Z,724.0000
2023-05-24T14:30:18.125Z,751.2308
2023-05-24T14:31:20.139Z,759.3846
2023-05-24T14:32:22.386Z,756.6923
2023-05-24T14:33:24.180Z,746.9231
2023-05-24T14:34:26.280Z,736.4615
2023-05-24T14:35:28.313Z,736.3077
2023-05-24T14:36:30.407Z,754.9231
2023-05-24T14:37:32.457Z,736.9231
2023-05-24T14:38:34.418Z,720.2308
2023-05-24T14:39:36.477Z,729.6154
2023-05-24T14:40:39.051Z,733.2308
2023-05-24T14:41:40.585Z,743.3077
2023-05-24T14:42:42.605Z,741.3077
2023-05-24T14:43:44.663Z,739.5385
2023-05-24T14:44:46.716Z,738.6923
2023-05-24T14:45:49.094Z,711.8461
2023-05-24T14:46:52.007Z,718.0769
2023-05-24T14:47:52.909Z,719.8461
2023-05-24T14:48:54.919Z,743.3846
2023-05-24T14:49:56.923Z,746.1539
2023-05-24T14:50:58.993Z,737.0000
2023-05-24T14:52:01.089Z,716.0000
2023-05-24T14:53:03.093Z,714.3077
2023-05-24T14:54:05.180Z,726.9231
2023-05-24T14:55:07.215Z,749.5385
2023-05-24T14:56:09.314Z,744.9231
2023-05-24T14:57:11.313Z,727.5385
2023-05-24T14:58:13.346Z,708.4615
2023-05-24T14:59:15.369Z,702.1539
2023-05-24T15:00:19.784Z,704.0000
2023-05-24T15:01:19.526Z,700.6154
2023-05-24T15:02:21.673Z,687.1539
2023-05-24T15:03:23.717Z,669.0769
2023-05-24T15:04:25.617Z,676.3846
2023-05-24T15:05:27.660Z,704.2308
2023-05-24T15:06:29.729Z,708.3846
2023-05-24T15:07:31.797Z,705.6154
2023-05-24T15:08:33.873Z,737.7692
2023-05-24T15:09:35.826Z,764.8461
2023-05-24T15:10:37.939Z,776.6154
2023-05-24T15:11:40.035Z,757.0000
2023-05-24T15:12:42.057Z,744.9231
2023-05-24T15:13:44.056Z,735.5385
2023-05-24T15:14:46.089Z,718.8461
2023-05-24T15:15:48.130Z,742.6923
2023-05-24T15:16:50.232Z,759.9231
2023-05-24T15:17:52.290Z,745.6154
2023-05-24T15:18:54.283Z,738.7692
2023-05-24T15:19:56.337Z,740.3077
2023-05-24T15:20:58.422Z,750.6923
2023-05-24T15:22:00.534Z,755.6154
2023-05-24T15:23:02.439Z,775.1539
2023-05-24T15:24:04.517Z,779.0000
2023-05-24T15:25:06.570Z,769.1539
2023-05-24T15:26:08.636Z,744.8461
2023-05-24T15:27:10.741Z,741.2308
2023-05-24T15:28:12.806Z,732.7692
2023-05-24T15:29:14.736Z,711.1539
2023-05-24T15:30:16.827Z,696.5385
2023-05-24T15:31:18.867Z,710.8461
2023-05-24T15:32:20.864Z,707.4615
2023-05-24T15:33:23.005Z,711.4615
2023-05-24T15:34:24.976Z,713.1539
2023-05-24T15:35:27.020Z,697.2308
2023-05-24T15:36:29.087Z,678.3846
2023-05-24T15:37:31.151Z,661.3846
2023-05-24T15:38:33.164Z,657.8461
2023-05-24T15:39:35.204Z,692.6154
2023-05-24T15:40:37.247Z,687.0000
2023-05-24T15:41:39.336Z,679.0000
2023-05-24T15:42:41.469Z,677.0769
2023-05-24T15:43:43.426Z,669.3077
2023-05-24T15:44:45.440Z,663.9231
2023-05-24T15:45:47.493Z,672.2308
2023-05-24T15:46:49.606Z,676.6923
2023-05-24T15:47:51.682Z,676.6923
2023-05-24T15:48:53.657Z,685.8461
2023-05-24T15:49:55.754Z,656.6154
2023-05-24T15:51:25.693Z,657.6923
2023-05-24T15:52:04.329Z,657.2308
2023-05-24T15:53:02.069Z,675.5385
2023-05-24T15:54:03.921Z,721.5385
2023-05-24T15:55:05.944Z,751.5385
2023-05-24T15:56:08.064Z,740.7692
2023-05-24T15:57:10.079Z,744.7692
2023-05-24T15:58:12.155Z,741.9231
2023-05-24T15:59:14.191Z,722.8461
2023-05-24T16:00:16.224Z,718.3077
2023-05-24T16:01:18.339Z,717.3077
2023-05-24T16:02:21.616Z,703.3077
2023-05-24T16:03:22.505Z,713.4615
2023-05-24T16:04:24.395Z,704.0769
2023-05-24T16:05:26.567Z,692.5385
2023-05-24T16:06:28.498Z,695.3077
2023-05-24T16:07:30.523Z,703.2308
2023-05-24T16:08:32.601Z,696.1539
2023-05-24T16:09:34.641Z,689.8461
2023-05-24T16:10:36.663Z,688.6923
2023-05-24T16:11:38.710Z,687.6923
2023-05-24T16:12:40.888Z,689.6154
2023-05-24T16:13:42.825Z,677.2308
2023-05-24T16:14:44.910Z,673.6154
2023-05-24T16:15:47.005Z,676.9231
2023-05-24T16:16:49.078Z,675.6923
2023-05-24T16:17:51.148Z,686.9231
2023-05-24T16:18:53.099Z,727.7692
2023-05-24T16:19:55.311Z,744.6923
2023-05-24T16:20:57.311Z,746.5385
2023-05-24T16:21:59.237Z,762.0000
2023-05-24T16:23:01.266Z,754.0000
2023-05-24T16:24:03.336Z,777.2308
2023-05-24T16:25:05.357Z,786.3077
2023-05-24T16:26:07.406Z,1530.6923
2023-05-24T16:27:09.526Z,957.5385
2023-05-24T16:28:11.579Z,777.8461
2023-05-24T16:29:13.579Z,768.4615
2023-05-24T16:30:15.731Z,763.6154
2023-05-24T16:31:17.755Z,751.2308
2023-05-24T16:32:19.827Z,758.9231
2023-05-24T16:33:21.763Z,771.7692
2023-05-24T16:34:23.820Z,735.3846
2023-05-24T16:35:25.915Z,733.0769
2023-05-24T16:36:27.865Z,745.5385
2023-05-24T16:37:29.947Z,760.7692
2023-05-24T16:38:33.220Z,760.0769
2023-05-24T16:39:34.105Z,751.2308
2023-05-24T16:40:36.106Z,750.3846
2023-05-24T16:41:38.378Z,736.6923